WXM80 ListenWXM80 Stop

You find our weather info also at:

UK Metoffice

WeatherCloud

Weather Underground

Northeastern Weather Network

AWEKAS

Citizen Weather Observer Program (CWOP)

HAMweather, WeatherForYou, PWS Weather


Weather Underground History page Text

Daily Summary for November 20, 2017 Units:  Both    English   Metric
« Previous Day
Next Day »
Daily Weekly Monthly Yearly Custom
  High: Low: Average:
Temperature: 46.4 °F /  8 °C 37.9 °F /  3.3 °C 41.7 °F /  5.4 °C
Dew Point: 34.2 °F /  1.2 °C 25.3 °F /  -3.7 °C 29 °F /  -1.7 °C
Humidity: 75 % 48 % 61 %
Wind Speed: 11.2 mph /  18 km/h - 5.2 mph /  8.4 km/h
Wind Gust: 23.0 mph /  37 km/h - -
Wind:- - WSW
Pressure: 30.16 in /  1021.2 hPa 29.79 in /  1008.7 hPa -
Precipitation: 0.00 in /  0 mm    
Historical Graphs
 
 
Tabular Data for November 20, 2017
Time Temperature Dew Point Pressure Wind Wind Speed Wind Gust Humidity Rainfall Rate (Hourly)
00:02 42.3 °F /  5.7 °C 33.9 °F /  1.1 °C 29.79 in /  1008.7 hPa WSW 8.8 mph /  14.2 km/h 12.7 mph /  20.4 km/h 72 % 0.00 in /  0 mm
00:17 41.9 °F /  5.5 °C 34.2 °F /  1.2 °C 29.79 in /  1008.7 hPa SSW 5.1 mph /  8.2 km/h 11.0 mph /  17.7 km/h 74 % 0.00 in /  0 mm
00:27 41.7 °F /  5.4 °C 34.0 °F /  1.1 °C 29.80 in /  1009 hPa WSW 8.6 mph /  13.8 km/h 16.1 mph /  25.9 km/h 74 % 0.00 in /  0 mm
00:28 41.7 °F /  5.4 °C 34.0 °F /  1.1 °C 29.80 in /  1009 hPa WNW 5.7 mph /  9.2 km/h 12.7 mph /  20.4 km/h 74 % 0.00 in /  0 mm
00:33 41.6 °F /  5.3 °C 33.9 °F /  1.1 °C 29.81 in /  1009.4 hPa WSW 4.3 mph /  6.9 km/h 7.0 mph /  11.3 km/h 74 % 0.00 in /  0 mm
00:38 41.5 °F /  5.3 °C 34.2 °F /  1.2 °C 29.81 in /  1009.4 hPa West 6.6 mph /  10.6 km/h 9.2 mph /  14.8 km/h 75 % 0.00 in /  0 mm
00:48 41.2 °F /  5.1 °C 33.5 °F /  0.8 °C 29.81 in /  1009.4 hPa West 6.8 mph /  10.9 km/h 11.5 mph /  18.5 km/h 74 % 0.00 in /  0 mm
00:53 41.1 °F /  5.1 °C 33.1 °F /  0.6 °C 29.81 in /  1009.4 hPa WNW 6.1 mph /  9.8 km/h 10.0 mph /  16.1 km/h 73 % 0.00 in /  0 mm
00:59 41.1 °F /  5.1 °C 33.1 °F /  0.6 °C 29.81 in /  1009.4 hPa WSW 5.8 mph /  9.3 km/h 11.5 mph /  18.5 km/h 73 % 0.00 in /  0 mm
01:04 41.0 °F /  5 °C 33.0 °F /  0.6 °C 29.81 in /  1009.4 hPa West 4.5 mph /  7.2 km/h 10.4 mph /  16.7 km/h 73 % 0.00 in /  0 mm
01:09 40.9 °F /  4.9 °C 32.9 °F /  0.5 °C 29.81 in /  1009.4 hPa WSW 5.0 mph /  8 km/h 8.1 mph /  13 km/h 73 % 0.00 in /  0 mm
01:14 40.8 °F /  4.9 °C 32.8 °F /  0.4 °C 29.81 in /  1009.4 hPa West 2.6 mph /  4.2 km/h 8.1 mph /  13 km/h 73 % 0.00 in /  0 mm
01:19 40.7 °F /  4.8 °C 32.7 °F /  0.4 °C 29.81 in /  1009.4 hPa SW 7.7 mph /  12.4 km/h 11.5 mph /  18.5 km/h 73 % 0.00 in /  0 mm
01:29 40.6 °F /  4.8 °C 32.6 °F /  0.3 °C 29.81 in /  1009.4 hPa SW 5.1 mph /  8.2 km/h 10.4 mph /  16.7 km/h 73 % 0.00 in /  0 mm
01:39 40.7 °F /  4.8 °C 32.7 °F /  0.4 °C 29.82 in /  1009.7 hPa WNW 6.9 mph /  11.1 km/h 15.0 mph /  24.1 km/h 73 % 0.00 in /  0 mm
01:44 40.7 °F /  4.8 °C 32.7 °F /  0.4 °C 29.83 in /  1010 hPa SW 6.5 mph /  10.5 km/h 10.0 mph /  16.1 km/h 73 % 0.00 in /  0 mm
01:49 40.7 °F /  4.8 °C 32.7 °F /  0.4 °C 29.83 in /  1010 hPa SW 5.9 mph /  9.5 km/h 15.0 mph /  24.1 km/h 73 % 0.00 in /  0 mm
01:54 40.6 °F /  4.8 °C 32.3 °F /  0.2 °C 29.83 in /  1010 hPa West 6.6 mph /  10.6 km/h 11.5 mph /  18.5 km/h 72 % 0.00 in /  0 mm
01:59 40.6 °F /  4.8 °C 32.3 °F /  0.2 °C 29.83 in /  1010 hPa SW 6.1 mph /  9.8 km/h 9.2 mph /  14.8 km/h 72 % 0.00 in /  0 mm
02:04 40.5 °F /  4.7 °C 32.2 °F /  0.1 °C 29.83 in /  1010 hPa NW 2.4 mph /  3.9 km/h 8.1 mph /  13 km/h 72 % 0.00 in /  0 mm
02:15 40.5 °F /  4.7 °C 31.5 °F /  -0.3 °C 29.84 in /  1010.4 hPa West 4.7 mph /  7.6 km/h 11.5 mph /  18.5 km/h 70 % 0.00 in /  0 mm
02:20 40.4 °F /  4.7 °C 31.4 °F /  -0.3 °C 29.85 in /  1010.7 hPa WSW 5.3 mph /  8.5 km/h 11.5 mph /  18.5 km/h 70 % 0.00 in /  0 mm
02:25 40.4 °F /  4.7 °C 31.7 °F /  -0.2 °C 29.85 in /  1010.7 hPa NW 8.8 mph /  14.2 km/h 11.5 mph /  18.5 km/h 71 % 0.00 in /  0 mm
02:30 40.3 °F /  4.6 °C 31.6 °F /  -0.2 °C 29.85 in /  1010.7 hPa WSW 3.0 mph /  4.8 km/h 9.2 mph /  14.8 km/h 71 % 0.00 in /  0 mm
02:35 40.3 °F /  4.6 °C 31.6 °F /  -0.2 °C 29.85 in /  1010.7 hPa WSW 3.5 mph /  5.6 km/h 7.0 mph /  11.3 km/h 71 % 0.00 in /  0 mm
02:40 40.3 °F /  4.6 °C 31.6 °F /  -0.2 °C 29.86 in /  1011.1 hPa WNW 4.6 mph /  7.4 km/h 9.2 mph /  14.8 km/h 71 % 0.00 in /  0 mm
02:47 40.3 °F /  4.6 °C 30.9 °F /  -0.6 °C 29.88 in /  1011.7 hPa WNW 5.9 mph /  9.5 km/h 16.1 mph /  25.9 km/h 69 % 0.00 in /  0 mm
02:52 40.4 °F /  4.7 °C 30.7 °F /  -0.7 °C 29.88 in /  1011.7 hPa North 6.6 mph /  10.6 km/h 13.8 mph /  22.2 km/h 68 % 0.00 in /  0 mm
03:07 40.3 °F /  4.6 °C 27.1 °F /  -2.7 °C 29.89 in /  1012.1 hPa WNW 8.8 mph /  14.2 km/h 15.0 mph /  24.1 km/h 59 % 0.00 in /  0 mm
03:12 40.2 °F /  4.6 °C 26.6 °F /  -3 °C 29.89 in /  1012.1 hPa NW 9.4 mph /  15.1 km/h 23.0 mph /  37 km/h 58 % 0.00 in /  0 mm
03:17 40.2 °F /  4.6 °C 26.2 °F /  -3.2 °C 29.89 in /  1012.1 hPa SW 6.3 mph /  10.1 km/h 16.1 mph /  25.9 km/h 57 % 0.00 in /  0 mm
03:22 40.2 °F /  4.6 °C 26.6 °F /  -3 °C 29.90 in /  1012.4 hPa NW 10.3 mph /  16.6 km/h 21.0 mph /  33.8 km/h 58 % 0.00 in /  0 mm
03:37 40.0 °F /  4.4 °C 26.4 °F /  -3.1 °C 29.89 in /  1012.1 hPa WNW 7.1 mph /  11.4 km/h 12.0 mph /  19.3 km/h 58 % 0.00 in /  0 mm
03:43 40.0 °F /  4.4 °C 27.2 °F /  -2.7 °C 29.89 in /  1012.1 hPa NW 7.3 mph /  11.7 km/h 17.3 mph /  27.8 km/h 60 % 0.00 in /  0 mm
03:58 39.6 °F /  4.2 °C 26.0 °F /  -3.3 °C 29.91 in /  1012.8 hPa WNW 5.9 mph /  9.5 km/h 17.3 mph /  27.8 km/h 58 % 0.00 in /  0 mm
04:03 39.5 °F /  4.2 °C 25.9 °F /  -3.4 °C 29.92 in /  1013.1 hPa WNW 9.3 mph /  15 km/h 17.3 mph /  27.8 km/h 58 % 0.00 in /  0 mm
04:13 39.3 °F /  4.1 °C 26.2 °F /  -3.2 °C 29.92 in /  1013.1 hPa West 6.6 mph /  10.6 km/h 17.3 mph /  27.8 km/h 59 % 0.00 in /  0 mm
04:18 39.1 °F /  3.9 °C 26.0 °F /  -3.3 °C 29.93 in /  1013.4 hPa NW 7.3 mph /  11.7 km/h 13.8 mph /  22.2 km/h 59 % 0.00 in /  0 mm
04:23 39.0 °F /  3.9 °C 26.3 °F /  -3.2 °C 29.93 in /  1013.4 hPa West 7.8 mph /  12.6 km/h 11.5 mph /  18.5 km/h 60 % 0.00 in /  0 mm
04:28 38.8 °F /  3.8 °C 25.3 °F /  -3.7 °C 29.93 in /  1013.4 hPa NW 8.8 mph /  14.2 km/h 11.5 mph /  18.5 km/h 58 % 0.00 in /  0 mm
04:38 38.6 °F /  3.7 °C 25.5 °F /  -3.6 °C 29.94 in /  1013.8 hPa NW 2.4 mph /  3.9 km/h 6.9 mph /  11.1 km/h 59 % 0.00 in /  0 mm
04:43 38.5 °F /  3.6 °C 25.4 °F /  -3.7 °C 29.93 in /  1013.4 hPa WNW 6.1 mph /  9.8 km/h 9.2 mph /  14.8 km/h 59 % 0.00 in /  0 mm
04:48 38.5 °F /  3.6 °C 25.8 °F /  -3.4 °C 29.94 in /  1013.8 hPa NW 1.5 mph /  2.4 km/h 3.5 mph /  5.6 km/h 60 % 0.00 in /  0 mm
04:53 38.4 °F /  3.6 °C 25.7 °F /  -3.5 °C 29.94 in /  1013.8 hPa SW 4.7 mph /  7.6 km/h 10.0 mph /  16.1 km/h 60 % 0.00 in /  0 mm
04:58 38.2 °F /  3.4 °C 25.5 °F /  -3.6 °C 29.94 in /  1013.8 hPa NW 8.5 mph /  13.7 km/h 13.8 mph /  22.2 km/h 60 % 0.00 in /  0 mm
05:07 38.2 °F /  3.4 °C 25.5 °F /  -3.6 °C 29.95 in /  1014.1 hPa WNW 4.7 mph /  7.6 km/h 11.5 mph /  18.5 km/h 60 % 0.00 in /  0 mm
05:17 38.1 °F /  3.4 °C 25.4 °F /  -3.7 °C 29.95 in /  1014.1 hPa WNW 9.2 mph /  14.8 km/h 13.8 mph /  22.2 km/h 60 % 0.00 in /  0 mm
05:27 38.1 °F /  3.4 °C 25.8 °F /  -3.4 °C 29.95 in /  1014.1 hPa NW 4.0 mph /  6.4 km/h 11.5 mph /  18.5 km/h 61 % 0.00 in /  0 mm
05:32 38.0 °F /  3.3 °C 25.7 °F /  -3.5 °C 29.95 in /  1014.1 hPa West 5.1 mph /  8.2 km/h 10.4 mph /  16.7 km/h 61 % 0.00 in /  0 mm
05:37 38.0 °F /  3.3 °C 26.1 °F /  -3.3 °C 29.95 in /  1014.1 hPa SW 3.6 mph /  5.8 km/h 11.5 mph /  18.5 km/h 62 % 0.00 in /  0 mm
05:42 38.0 °F /  3.3 °C 26.1 °F /  -3.3 °C 29.96 in /  1014.4 hPa WNW 4.2 mph /  6.8 km/h 10.4 mph /  16.7 km/h 62 % 0.00 in /  0 mm
05:47 37.9 °F /  3.3 °C 26.0 °F /  -3.3 °C 29.96 in /  1014.4 hPa SW 5.9 mph /  9.5 km/h 17.3 mph /  27.8 km/h 62 % 0.00 in /  0 mm
05:52 38.0 °F /  3.3 °C 26.5 °F /  -3.1 °C 29.96 in /  1014.4 hPa West 6.5 mph /  10.5 km/h 12.7 mph /  20.4 km/h 63 % 0.00 in /  0 mm
05:57 38.0 °F /  3.3 °C 26.5 °F /  -3.1 °C 29.97 in /  1014.8 hPa SW 7.3 mph /  11.7 km/h 17.3 mph /  27.8 km/h 63 % 0.00 in /  0 mm
06:02 38.0 °F /  3.3 °C 26.1 °F /  -3.3 °C 29.97 in /  1014.8 hPa West 7.8 mph /  12.6 km/h 18.4 mph /  29.6 km/h 62 % 0.00 in /  0 mm
06:07 38.0 °F /  3.3 °C 26.5 °F /  -3.1 °C 29.97 in /  1014.8 hPa SW 5.1 mph /  8.2 km/h 9.0 mph /  14.5 km/h 63 % 0.00 in /  0 mm
06:17 38.0 °F /  3.3 °C 26.5 °F /  -3.1 °C 29.98 in /  1015.1 hPa SW 6.1 mph /  9.8 km/h 16.0 mph /  25.7 km/h 63 % 0.00 in /  0 mm
06:22 38.0 °F /  3.3 °C 26.1 °F /  -3.3 °C 29.98 in /  1015.1 hPa WNW 4.5 mph /  7.2 km/h 10.4 mph /  16.7 km/h 62 % 0.00 in /  0 mm
06:27 38.0 °F /  3.3 °C 26.1 °F /  -3.3 °C 29.98 in /  1015.1 hPa WNW 6.9 mph /  11.1 km/h 10.4 mph /  16.7 km/h 62 % 0.00 in /  0 mm
06:43 38.0 °F /  3.3 °C 26.9 °F /  -2.8 °C 30.00 in /  1015.8 hPa WNW 4.8 mph /  7.7 km/h 11.5 mph /  18.5 km/h 64 % 0.00 in /  0 mm
06:58 38.0 °F /  3.3 °C 26.5 °F /  -3.1 °C 30.00 in /  1015.8 hPa SSW 4.3 mph /  6.9 km/h 11.5 mph /  18.5 km/h 63 % 0.00 in /  0 mm
07:03 38.0 °F /  3.3 °C 27.3 °F /  -2.6 °C 30.00 in /  1015.8 hPa West 4.4 mph /  7.1 km/h 9.2 mph /  14.8 km/h 65 % 0.00 in /  0 mm
07:13 38.0 °F /  3.3 °C 26.5 °F /  -3.1 °C 30.01 in /  1016.1 hPa SW 10.8 mph /  17.4 km/h 19.6 mph /  31.5 km/h 63 % 0.00 in /  0 mm
07:18 38.1 °F /  3.4 °C 26.6 °F /  -3 °C 30.01 in /  1016.1 hPa WSW 5.5 mph /  8.9 km/h 15.0 mph /  24.1 km/h 63 % 0.00 in /  0 mm
07:23 38.3 °F /  3.5 °C 26.8 °F /  -2.9 °C 30.01 in /  1016.1 hPa WSW 4.3 mph /  6.9 km/h 8.1 mph /  13 km/h 63 % 0.00 in /  0 mm
07:28 38.4 °F /  3.6 °C 26.5 °F /  -3.1 °C 30.02 in /  1016.5 hPa WNW 6.6 mph /  10.6 km/h 13.0 mph /  20.9 km/h 62 % 0.00 in /  0 mm
07:33 38.4 °F /  3.6 °C 26.9 °F /  -2.8 °C 30.02 in /  1016.5 hPa NNW 7.0 mph /  11.3 km/h 13.0 mph /  20.9 km/h 63 % 0.00 in /  0 mm
07:48 38.5 °F /  3.6 °C 27.0 °F /  -2.8 °C 30.02 in /  1016.5 hPa WNW 3.5 mph /  5.6 km/h 17.3 mph /  27.8 km/h 63 % 0.00 in /  0 mm
07:53 38.5 °F /  3.6 °C 26.6 °F /  -3 °C 30.03 in /  1016.8 hPa NW 7.4 mph /  11.9 km/h 14.0 mph /  22.5 km/h 62 % 0.00 in /  0 mm
07:58 38.6 °F /  3.7 °C 27.5 °F /  -2.5 °C 30.03 in /  1016.8 hPa NW 6.8 mph /  10.9 km/h 9.2 mph /  14.8 km/h 64 % 0.00 in /  0 mm
08:03 38.7 °F /  3.7 °C 27.6 °F /  -2.4 °C 30.03 in /  1016.8 hPa WSW 5.8 mph /  9.3 km/h 9.2 mph /  14.8 km/h 64 % 0.00 in /  0 mm
08:14 38.9 °F /  3.8 °C 27.4 °F /  -2.6 °C 30.03 in /  1016.8 hPa West 9.5 mph /  15.3 km/h 19.6 mph /  31.5 km/h 63 % 0.00 in /  0 mm
08:19 39.0 °F /  3.9 °C 27.8 °F /  -2.3 °C 30.04 in /  1017.2 hPa SW 6.0 mph /  9.7 km/h 11.5 mph /  18.5 km/h 64 % 0.00 in /  0 mm
08:24 39.1 °F /  3.9 °C 28.3 °F /  -2.1 °C 30.04 in /  1017.2 hPa WNW 6.4 mph /  10.3 km/h 11.5 mph /  18.5 km/h 65 % 0.00 in /  0 mm
08:29 39.2 °F /  4 °C 28.8 °F /  -1.8 °C 30.03 in /  1016.8 hPa WSW 7.3 mph /  11.7 km/h 15.0 mph /  24.1 km/h 66 % 0.00 in /  0 mm
08:39 39.3 °F /  4.1 °C 28.9 °F /  -1.7 °C 30.04 in /  1017.2 hPa West 6.2 mph /  10 km/h 10.4 mph /  16.7 km/h 66 % 0.00 in /  0 mm
08:49 39.5 °F /  4.2 °C 28.3 °F /  -2.1 °C 30.04 in /  1017.2 hPa WSW 9.8 mph /  15.8 km/h 13.8 mph /  22.2 km/h 64 % 0.00 in /  0 mm
08:54 39.7 °F /  4.3 °C 28.1 °F /  -2.2 °C 30.04 in /  1017.2 hPa WNW 11.2 mph /  18 km/h 19.6 mph /  31.5 km/h 63 % 0.00 in /  0 mm
08:59 40.0 °F /  4.4 °C 28.8 °F /  -1.8 °C 30.04 in /  1017.2 hPa NW 7.1 mph /  11.4 km/h 16.1 mph /  25.9 km/h 64 % 0.00 in /  0 mm
09:04 40.4 °F /  4.7 °C 29.2 °F /  -1.6 °C 30.04 in /  1017.2 hPa West 9.8 mph /  15.8 km/h 17.0 mph /  27.4 km/h 64 % 0.00 in /  0 mm
09:09 40.5 °F /  4.7 °C 28.9 °F /  -1.7 °C 30.05 in /  1017.5 hPa SW 3.4 mph /  5.5 km/h 8.1 mph /  13 km/h 63 % 0.00 in /  0 mm
09:24 40.6 °F /  4.8 °C 29.7 °F /  -1.3 °C 30.05 in /  1017.5 hPa WNW 4.3 mph /  6.9 km/h 9.2 mph /  14.8 km/h 65 % 0.00 in /  0 mm
09:29 40.5 °F /  4.7 °C 30.0 °F /  -1.1 °C 30.05 in /  1017.5 hPa NW 4.7 mph /  7.6 km/h 8.1 mph /  13 km/h 66 % 0.00 in /  0 mm
09:34 40.5 °F /  4.7 °C 30.0 °F /  -1.1 °C 30.06 in /  1017.8 hPa NW 4.9 mph /  7.9 km/h 8.1 mph /  13 km/h 66 % 0.00 in /  0 mm
09:39 40.4 °F /  4.7 °C 29.2 °F /  -1.6 °C 30.05 in /  1017.5 hPa WNW 7.3 mph /  11.7 km/h 16.1 mph /  25.9 km/h 64 % 0.00 in /  0 mm
09:44 40.3 °F /  4.6 °C 29.5 °F /  -1.4 °C 30.05 in /  1017.5 hPa WSW 8.5 mph /  13.7 km/h 13.0 mph /  20.9 km/h 65 % 0.00 in /  0 mm
09:49 40.2 °F /  4.6 °C 30.1 °F /  -1.1 °C 30.06 in /  1017.8 hPa SW 8.8 mph /  14.2 km/h 12.7 mph /  20.4 km/h 67 % 0.00 in /  0 mm
09:59 40.0 °F /  4.4 °C 29.9 °F /  -1.2 °C 30.06 in /  1017.8 hPa West 6.0 mph /  9.7 km/h 11.5 mph /  18.5 km/h 67 % 0.00 in /  0 mm
10:12 40.0 °F /  4.4 °C 29.9 °F /  -1.2 °C 30.06 in /  1017.8 hPa SW 7.1 mph /  11.4 km/h 9.2 mph /  14.8 km/h 67 % 0.00 in /  0 mm
10:17 40.3 °F /  4.6 °C 30.6 °F /  -0.8 °C 30.05 in /  1017.5 hPa WNW 6.4 mph /  10.3 km/h 11.5 mph /  18.5 km/h 68 % 0.00 in /  0 mm
10:22 40.7 °F /  4.8 °C 30.2 °F /  -1 °C 30.06 in /  1017.8 hPa West 6.5 mph /  10.5 km/h 11.5 mph /  18.5 km/h 66 % 0.00 in /  0 mm
10:27 41.1 °F /  5.1 °C 30.6 °F /  -0.8 °C 30.06 in /  1017.8 hPa West 5.2 mph /  8.4 km/h 9.2 mph /  14.8 km/h 66 % 0.00 in /  0 mm
10:32 41.4 °F /  5.2 °C 30.1 °F /  -1.1 °C 30.06 in /  1017.8 hPa WSW 7.5 mph /  12.1 km/h 15.0 mph /  24.1 km/h 64 % 0.00 in /  0 mm
10:37 41.7 °F /  5.4 °C 30.0 °F /  -1.1 °C 30.06 in /  1017.8 hPa West 4.9 mph /  7.9 km/h 8.1 mph /  13 km/h 63 % 0.00 in /  0 mm
10:38 41.7 °F /  5.4 °C 30.0 °F /  -1.1 °C 30.06 in /  1017.8 hPa West 6.4 mph /  10.3 km/h 9.2 mph /  14.8 km/h 63 % 0.00 in /  0 mm
10:43 41.7 °F /  5.4 °C 30.0 °F /  -1.1 °C 30.05 in /  1017.5 hPa NW 5.5 mph /  8.9 km/h 10.4 mph /  16.7 km/h 63 % 0.00 in /  0 mm
10:48 41.7 °F /  5.4 °C 29.2 °F /  -1.6 °C 30.06 in /  1017.8 hPa WNW 6.0 mph /  9.7 km/h 7.0 mph /  11.3 km/h 61 % 0.00 in /  0 mm
10:49 41.6 °F /  5.3 °C 29.1 °F /  -1.6 °C 30.06 in /  1017.8 hPa WNW 7.6 mph /  12.2 km/h 13.8 mph /  22.2 km/h 61 % 0.00 in /  0 mm
10:54 41.5 °F /  5.3 °C 29.4 °F /  -1.4 °C 30.05 in /  1017.5 hPa WSW 5.6 mph /  9 km/h 10.4 mph /  16.7 km/h 62 % 0.00 in /  0 mm
10:59 41.4 °F /  5.2 °C 29.3 °F /  -1.5 °C 30.05 in /  1017.5 hPa WSW 5.4 mph /  8.7 km/h 11.5 mph /  18.5 km/h 62 % 0.00 in /  0 mm
11:09 41.3 °F /  5.2 °C 29.6 °F /  -1.3 °C 30.05 in /  1017.5 hPa West 9.5 mph /  15.3 km/h 20.0 mph /  32.2 km/h 63 % 0.00 in /  0 mm
11:14 41.3 °F /  5.2 °C 29.6 °F /  -1.3 °C 30.05 in /  1017.5 hPa SW 3.2 mph /  5.1 km/h 9.2 mph /  14.8 km/h 63 % 0.00 in /  0 mm
11:19 41.4 °F /  5.2 °C 30.1 °F /  -1.1 °C 30.05 in /  1017.5 hPa NW 6.1 mph /  9.8 km/h 8.1 mph /  13 km/h 64 % 0.00 in /  0 mm
11:29 41.7 °F /  5.4 °C 29.2 °F /  -1.6 °C 30.05 in /  1017.5 hPa West 8.1 mph /  13 km/h 11.5 mph /  18.5 km/h 61 % 0.00 in /  0 mm
11:34 41.8 °F /  5.4 °C 28.9 °F /  -1.7 °C 30.05 in /  1017.5 hPa WNW 6.4 mph /  10.3 km/h 12.7 mph /  20.4 km/h 60 % 0.00 in /  0 mm
11:39 42.0 °F /  5.6 °C 29.1 °F /  -1.6 °C 30.04 in /  1017.2 hPa WNW 4.1 mph /  6.6 km/h 10.4 mph /  16.7 km/h 60 % 0.00 in /  0 mm
11:40 42.1 °F /  5.6 °C 29.2 °F /  -1.6 °C 30.04 in /  1017.2 hPa NW 3.9 mph /  6.3 km/h 6.0 mph /  9.7 km/h 60 % 0.00 in /  0 mm
11:45 42.3 °F /  5.7 °C 29.4 °F /  -1.4 °C 30.05 in /  1017.5 hPa SW 7.0 mph /  11.3 km/h 13.8 mph /  22.2 km/h 60 % 0.00 in /  0 mm
11:50 42.4 °F /  5.8 °C 29.5 °F /  -1.4 °C 30.04 in /  1017.2 hPa WNW 4.2 mph /  6.8 km/h 11.5 mph /  18.5 km/h 60 % 0.00 in /  0 mm
11:55 42.6 °F /  5.9 °C 29.3 °F /  -1.5 °C 30.04 in /  1017.2 hPa NW 3.3 mph /  5.3 km/h 10.4 mph /  16.7 km/h 59 % 0.00 in /  0 mm
12:00 42.7 °F /  5.9 °C 29.8 °F /  -1.2 °C 30.04 in /  1017.2 hPa West 5.1 mph /  8.2 km/h 9.0 mph /  14.5 km/h 60 % 0.00 in /  0 mm
12:02 42.8 °F /  6 °C 30.3 °F /  -0.9 °C 30.04 in /  1017.2 hPa West 6.1 mph /  9.8 km/h 9.2 mph /  14.8 km/h 61 % 0.00 in /  0 mm
12:07 43.0 °F /  6.1 °C 30.1 °F /  -1.1 °C 30.04 in /  1017.2 hPa West 5.7 mph /  9.2 km/h 11.5 mph /  18.5 km/h 60 % 0.00 in /  0 mm
12:12 43.1 °F /  6.2 °C 29.7 °F /  -1.3 °C 30.04 in /  1017.2 hPa West 5.7 mph /  9.2 km/h 11.5 mph /  18.5 km/h 59 % 0.00 in /  0 mm
12:17 43.2 °F /  6.2 °C 30.2 °F /  -1 °C 30.04 in /  1017.2 hPa WSW 8.2 mph /  13.2 km/h 12.7 mph /  20.4 km/h 60 % 0.00 in /  0 mm
12:22 43.2 °F /  6.2 °C 29.8 °F /  -1.2 °C 30.04 in /  1017.2 hPa WSW 2.5 mph /  4 km/h 4.6 mph /  7.4 km/h 59 % 0.00 in /  0 mm
12:27 43.3 °F /  6.3 °C 30.3 °F /  -0.9 °C 30.04 in /  1017.2 hPa WNW 3.9 mph /  6.3 km/h 6.0 mph /  9.7 km/h 60 % 0.00 in /  0 mm
12:32 43.5 °F /  6.4 °C 30.1 °F /  -1.1 °C 30.03 in /  1016.8 hPa WSW 7.0 mph /  11.3 km/h 12.7 mph /  20.4 km/h 59 % 0.00 in /  0 mm
12:36 43.7 °F /  6.5 °C 29.9 °F /  -1.2 °C 30.03 in /  1016.8 hPa SW 7.1 mph /  11.4 km/h 10.4 mph /  16.7 km/h 58 % 0.00 in /  0 mm
12:41 43.8 °F /  6.6 °C 29.5 °F /  -1.4 °C 30.03 in /  1016.8 hPa WSW 6.0 mph /  9.7 km/h 8.0 mph /  12.9 km/h 57 % 0.00 in /  0 mm
12:46 44.0 °F /  6.7 °C 29.7 °F /  -1.3 °C 30.03 in /  1016.8 hPa SW 3.4 mph /  5.5 km/h 8.1 mph /  13 km/h 57 % 0.00 in /  0 mm
12:51 44.1 °F /  6.7 °C 29.8 °F /  -1.2 °C 30.03 in /  1016.8 hPa West 5.7 mph /  9.2 km/h 11.5 mph /  18.5 km/h 57 % 0.00 in /  0 mm
12:57 44.2 °F /  6.8 °C 29.0 °F /  -1.7 °C 30.03 in /  1016.8 hPa NW 5.6 mph /  9 km/h 11.5 mph /  18.5 km/h 55 % 0.00 in /  0 mm
13:02 44.3 °F /  6.8 °C 28.2 °F /  -2.1 °C 30.03 in /  1016.8 hPa NW 5.3 mph /  8.5 km/h 16.1 mph /  25.9 km/h 53 % 0.00 in /  0 mm
13:07 44.3 °F /  6.8 °C 29.1 °F /  -1.6 °C 30.03 in /  1016.8 hPa WSW 0.4 mph /  0.6 km/h 8.1 mph /  13 km/h 55 % 0.00 in /  0 mm
13:12 44.4 °F /  6.9 °C 28.8 °F /  -1.8 °C 30.03 in /  1016.8 hPa West 4.4 mph /  7.1 km/h 13.8 mph /  22.2 km/h 54 % 0.00 in /  0 mm
13:17 44.7 °F /  7.1 °C 29.1 °F /  -1.6 °C 30.03 in /  1016.8 hPa WNW 7.7 mph /  12.4 km/h 13.8 mph /  22.2 km/h 54 % 0.00 in /  0 mm
13:22 44.8 °F /  7.1 °C 28.7 °F /  -1.8 °C 30.03 in /  1016.8 hPa WSW 6.6 mph /  10.6 km/h 10.4 mph /  16.7 km/h 53 % 0.00 in /  0 mm
13:27 45.0 °F /  7.2 °C 28.4 °F /  -2 °C 30.03 in /  1016.8 hPa West 5.3 mph /  8.5 km/h 9.2 mph /  14.8 km/h 52 % 0.00 in /  0 mm
13:32 45.3 °F /  7.4 °C 28.7 °F /  -1.8 °C 30.03 in /  1016.8 hPa WNW 6.4 mph /  10.3 km/h 11.5 mph /  18.5 km/h 52 % 0.00 in /  0 mm
13:42 46.0 °F /  7.8 °C 28.4 °F /  -2 °C 30.03 in /  1016.8 hPa West 7.4 mph /  11.9 km/h 11.5 mph /  18.5 km/h 50 % 0.00 in /  0 mm
13:47 46.3 °F /  7.9 °C 28.2 °F /  -2.1 °C 30.03 in /  1016.8 hPa WNW 8.0 mph /  12.9 km/h 12.7 mph /  20.4 km/h 49 % 0.00 in /  0 mm
14:01 46.4 °F /  8 °C 27.8 °F /  -2.3 °C 30.04 in /  1017.2 hPa WNW 5.8 mph /  9.3 km/h 13.0 mph /  20.9 km/h 48 % 0.00 in /  0 mm
14:06 46.4 °F /  8 °C 28.3 °F /  -2.1 °C 30.04 in /  1017.2 hPa West 2.0 mph /  3.2 km/h 13.0 mph /  20.9 km/h 49 % 0.00 in /  0 mm
14:16 46.3 °F /  7.9 °C 27.7 °F /  -2.4 °C 30.04 in /  1017.2 hPa West 8.0 mph /  12.9 km/h 18.0 mph /  29 km/h 48 % 0.00 in /  0 mm
14:21 46.2 °F /  7.9 °C 28.1 °F /  -2.2 °C 30.04 in /  1017.2 hPa West 8.0 mph /  12.9 km/h 14.0 mph /  22.5 km/h 49 % 0.00 in /  0 mm
14:26 46.2 °F /  7.9 °C 29.0 °F /  -1.7 °C 30.05 in /  1017.5 hPa West 5.0 mph /  8 km/h 10.0 mph /  16.1 km/h 51 % 0.00 in /  0 mm
14:31 46.1 °F /  7.8 °C 28.5 °F /  -1.9 °C 30.04 in /  1017.2 hPa WSW 5.8 mph /  9.3 km/h 11.5 mph /  18.5 km/h 50 % 0.00 in /  0 mm
14:36 46.1 °F /  7.8 °C 28.5 °F /  -1.9 °C 30.05 in /  1017.5 hPa WNW 6.0 mph /  9.7 km/h 16.0 mph /  25.7 km/h 50 % 0.00 in /  0 mm
14:46 46.0 °F /  7.8 °C 28.4 °F /  -2 °C 30.05 in /  1017.5 hPa West 3.0 mph /  4.8 km/h 12.0 mph /  19.3 km/h 50 % 0.00 in /  0 mm
14:51 46.0 °F /  7.8 °C 28.4 °F /  -2 °C 30.05 in /  1017.5 hPa WSW 7.0 mph /  11.3 km/h 12.0 mph /  19.3 km/h 50 % 0.00 in /  0 mm
14:56 46.0 °F /  7.8 °C 28.4 °F /  -2 °C 30.05 in /  1017.5 hPa West 3.9 mph /  6.3 km/h 8.1 mph /  13 km/h 50 % 0.00 in /  0 mm
15:01 46.0 °F /  7.8 °C 28.4 °F /  -2 °C 30.06 in /  1017.8 hPa SSW 2.3 mph /  3.7 km/h 4.6 mph /  7.4 km/h 50 % 0.00 in /  0 mm
15:06 46.0 °F /  7.8 °C 28.4 °F /  -2 °C 30.06 in /  1017.8 hPa SW 7.1 mph /  11.4 km/h 16.1 mph /  25.9 km/h 50 % 0.00 in /  0 mm
15:11 46.0 °F /  7.8 °C 28.9 °F /  -1.7 °C 30.06 in /  1017.8 hPa WNW 6.1 mph /  9.8 km/h 9.2 mph /  14.8 km/h 51 % 0.00 in /  0 mm
15:16 46.0 °F /  7.8 °C 28.4 °F /  -2 °C 30.06 in /  1017.8 hPa West 3.9 mph /  6.3 km/h 6.9 mph /  11.1 km/h 50 % 0.00 in /  0 mm
15:21 45.9 °F /  7.7 °C 28.3 °F /  -2.1 °C 30.07 in /  1018.2 hPa West 2.9 mph /  4.7 km/h 4.6 mph /  7.4 km/h 50 % 0.00 in /  0 mm
15:26 45.8 °F /  7.7 °C 28.7 °F /  -1.8 °C 30.07 in /  1018.2 hPa WNW 3.7 mph /  6 km/h 5.8 mph /  9.3 km/h 51 % 0.00 in /  0 mm
15:31 45.7 °F /  7.6 °C 28.6 °F /  -1.9 °C 30.06 in /  1017.8 hPa WSW 4.6 mph /  7.4 km/h 11.5 mph /  18.5 km/h 51 % 0.00 in /  0 mm
15:36 45.6 °F /  7.6 °C 28.5 °F /  -1.9 °C 30.07 in /  1018.2 hPa SW 6.0 mph /  9.7 km/h 9.2 mph /  14.8 km/h 51 % 0.00 in /  0 mm
15:41 45.5 °F /  7.5 °C 28.9 °F /  -1.7 °C 30.07 in /  1018.2 hPa West 1.9 mph /  3.1 km/h 6.9 mph /  11.1 km/h 52 % 0.00 in /  0 mm
15:46 45.4 °F /  7.4 °C 28.8 °F /  -1.8 °C 30.07 in /  1018.2 hPa SW 3.1 mph /  5 km/h 6.9 mph /  11.1 km/h 52 % 0.00 in /  0 mm
15:51 45.3 °F /  7.4 °C 28.7 °F /  -1.8 °C 30.07 in /  1018.2 hPa WNW 3.8 mph /  6.1 km/h 12.0 mph /  19.3 km/h 52 % 0.00 in /  0 mm
15:56 45.2 °F /  7.3 °C 28.6 °F /  -1.9 °C 30.07 in /  1018.2 hPa WSW 6.0 mph /  9.7 km/h 10.4 mph /  16.7 km/h 52 % 0.00 in /  0 mm
16:12 45.1 °F /  7.3 °C 29.0 °F /  -1.7 °C 30.08 in /  1018.5 hPa SSW 3.6 mph /  5.8 km/h 8.1 mph /  13 km/h 53 % 0.00 in /  0 mm
16:17 45.0 °F /  7.2 °C 28.9 °F /  -1.7 °C 30.08 in /  1018.5 hPa WSW 4.0 mph /  6.4 km/h 8.1 mph /  13 km/h 53 % 0.00 in /  0 mm
16:22 44.9 °F /  7.2 °C 28.8 °F /  -1.8 °C 30.08 in /  1018.5 hPa SW 3.1 mph /  5 km/h 6.9 mph /  11.1 km/h 53 % 0.00 in /  0 mm
16:27 44.8 °F /  7.1 °C 29.2 °F /  -1.6 °C 30.08 in /  1018.5 hPa WSW 5.6 mph /  9 km/h 12.7 mph /  20.4 km/h 54 % 0.00 in /  0 mm
16:32 44.7 °F /  7.1 °C 29.5 °F /  -1.4 °C 30.08 in /  1018.5 hPa SSW 2.1 mph /  3.4 km/h 9.2 mph /  14.8 km/h 55 % 0.00 in /  0 mm
16:42 44.5 °F /  6.9 °C 28.9 °F /  -1.7 °C 30.08 in /  1018.5 hPa SSW 4.6 mph /  7.4 km/h 10.4 mph /  16.7 km/h 54 % 0.00 in /  0 mm
16:47 44.3 °F /  6.8 °C 28.7 °F /  -1.8 °C 30.08 in /  1018.5 hPa SSW 4.6 mph /  7.4 km/h 10.4 mph /  16.7 km/h 54 % 0.00 in /  0 mm
16:52 44.2 °F /  6.8 °C 28.6 °F /  -1.9 °C 30.08 in /  1018.5 hPa SW 2.3 mph /  3.7 km/h 3.5 mph /  5.6 km/h 54 % 0.00 in /  0 mm
16:57 44.1 °F /  6.7 °C 28.9 °F /  -1.7 °C 30.08 in /  1018.5 hPa WSW 6.2 mph /  10 km/h 9.2 mph /  14.8 km/h 55 % 0.00 in /  0 mm
17:02 43.9 °F /  6.6 °C 28.8 °F /  -1.8 °C 30.08 in /  1018.5 hPa SW 4.3 mph /  6.9 km/h 8.0 mph /  12.9 km/h 55 % 0.00 in /  0 mm
17:12 43.7 °F /  6.5 °C 28.6 °F /  -1.9 °C 30.09 in /  1018.8 hPa SSW 4.2 mph /  6.8 km/h 8.1 mph /  13 km/h 55 % 0.00 in /  0 mm
17:17 43.7 °F /  6.5 °C 28.6 °F /  -1.9 °C 30.09 in /  1018.8 hPa SW 2.4 mph /  3.9 km/h 4.6 mph /  7.4 km/h 55 % 0.00 in /  0 mm
17:22 43.6 °F /  6.4 °C 28.9 °F /  -1.7 °C 30.09 in /  1018.8 hPa SSW 3.2 mph /  5.1 km/h 6.9 mph /  11.1 km/h 56 % 0.00 in /  0 mm
17:27 43.5 °F /  6.4 °C 28.8 °F /  -1.8 °C 30.09 in /  1018.8 hPa SW 1.5 mph /  2.4 km/h 4.0 mph /  6.4 km/h 56 % 0.00 in /  0 mm
17:32 43.4 °F /  6.3 °C 28.7 °F /  -1.8 °C 30.09 in /  1018.8 hPa SW 2.8 mph /  4.5 km/h 5.8 mph /  9.3 km/h 56 % 0.00 in /  0 mm
17:37 43.3 °F /  6.3 °C 28.6 °F /  -1.9 °C 30.10 in /  1019.2 hPa SW 2.7 mph /  4.3 km/h 4.6 mph /  7.4 km/h 56 % 0.00 in /  0 mm
17:48 43.1 °F /  6.2 °C 28.9 °F /  -1.7 °C 30.10 in /  1019.2 hPa WSW 2.2 mph /  3.5 km/h 2.3 mph /  3.7 km/h 57 % 0.00 in /  0 mm
17:58 42.8 °F /  6 °C 29.0 °F /  -1.7 °C 30.11 in /  1019.5 hPa WSW 2.0 mph /  3.2 km/h 3.5 mph /  5.6 km/h 58 % 0.00 in /  0 mm
18:08 42.7 °F /  5.9 °C 28.9 °F /  -1.7 °C 30.11 in /  1019.5 hPa SSW 4.2 mph /  6.8 km/h 9.0 mph /  14.5 km/h 58 % 0.00 in /  0 mm
18:13 42.5 °F /  5.8 °C 28.8 °F /  -1.8 °C 30.11 in /  1019.5 hPa SSW 4.2 mph /  6.8 km/h 8.1 mph /  13 km/h 58 % 0.00 in /  0 mm
18:18 42.5 °F /  5.8 °C 28.8 °F /  -1.8 °C 30.11 in /  1019.5 hPa WSW 3.6 mph /  5.8 km/h 6.9 mph /  11.1 km/h 58 % 0.00 in /  0 mm
18:23 42.4 °F /  5.8 °C 29.1 °F /  -1.6 °C 30.11 in /  1019.5 hPa SW 2.6 mph /  4.2 km/h 4.0 mph /  6.4 km/h 59 % 0.00 in /  0 mm
18:28 42.3 °F /  5.7 °C 29.0 °F /  -1.7 °C 30.11 in /  1019.5 hPa SW 2.1 mph /  3.4 km/h 4.6 mph /  7.4 km/h 59 % 0.00 in /  0 mm
18:33 42.3 °F /  5.7 °C 29.0 °F /  -1.7 °C 30.11 in /  1019.5 hPa West 2.2 mph /  3.5 km/h 5.8 mph /  9.3 km/h 59 % 0.00 in /  0 mm
18:43 42.2 °F /  5.7 °C 29.3 °F /  -1.5 °C 30.12 in /  1019.9 hPa SW 0.9 mph /  1.4 km/h 3.5 mph /  5.6 km/h 60 % 0.00 in /  0 mm
19:03 41.9 °F /  5.5 °C 29.4 °F /  -1.4 °C 30.12 in /  1019.9 hPa SSW 2.4 mph /  3.9 km/h 3.5 mph /  5.6 km/h 61 % 0.00 in /  0 mm
19:10 41.8 °F /  5.4 °C 29.3 °F /  -1.5 °C 30.12 in /  1019.9 hPa SSW 0.7 mph /  1.1 km/h 3.0 mph /  4.8 km/h 61 % 0.00 in /  0 mm
19:16 41.7 °F /  5.4 °C 29.2 °F /  -1.6 °C 30.12 in /  1019.9 hPa WSW 2.5 mph /  4 km/h 8.1 mph /  13 km/h 61 % 0.00 in /  0 mm
19:21 41.6 °F /  5.3 °C 28.7 °F /  -1.8 °C 30.12 in /  1019.9 hPa WSW 4.3 mph /  6.9 km/h 8.0 mph /  12.9 km/h 60 % 0.00 in /  0 mm
19:29 41.5 °F /  5.3 °C 29.0 °F /  -1.7 °C 29.88 in /  1011.7 hPa WSW 2.6 mph /  4.2 km/h 5.0 mph /  8 km/h 61 % 0.00 in /  0 mm
19:31 41.5 °F /  5.3 °C 29.0 °F /  -1.7 °C 30.12 in /  1019.9 hPa SW 4.4 mph /  7.1 km/h 4.6 mph /  7.4 km/h 61 % 0.00 in /  0 mm
19:34 41.5 °F /  5.3 °C 29.0 °F /  -1.7 °C 29.88 in /  1011.7 hPa SW 1.7 mph /  2.7 km/h 4.6 mph /  7.4 km/h 61 % 0.00 in /  0 mm
19:39 41.4 °F /  5.2 °C 28.9 °F /  -1.7 °C 30.12 in /  1019.9 hPa SW 4.2 mph /  6.8 km/h 8.0 mph /  12.9 km/h 61 % 0.00 in /  0 mm
19:54 41.4 °F /  5.2 °C 29.3 °F /  -1.5 °C 30.12 in /  1019.9 hPa SW 2.1 mph /  3.4 km/h 5.0 mph /  8 km/h 62 % 0.00 in /  0 mm
19:59 41.4 °F /  5.2 °C 29.3 °F /  -1.5 °C 30.12 in /  1019.9 hPa SSW 2.4 mph /  3.9 km/h 3.5 mph /  5.6 km/h 62 % 0.00 in /  0 mm
20:09 41.3 °F /  5.2 °C 29.3 °F /  -1.5 °C 30.13 in /  1020.2 hPa SW 1.7 mph /  2.7 km/h 4.6 mph /  7.4 km/h 62 % 0.00 in /  0 mm
20:19 41.2 °F /  5.1 °C 29.2 °F /  -1.6 °C 30.13 in /  1020.2 hPa WSW 1.1 mph /  1.8 km/h 3.5 mph /  5.6 km/h 62 % 0.00 in /  0 mm
20:29 41.1 °F /  5.1 °C 29.1 °F /  -1.6 °C 30.13 in /  1020.2 hPa SW 0.6 mph /  1 km/h 1.2 mph /  1.9 km/h 62 % 0.00 in /  0 mm
20:44 40.7 °F /  4.8 °C 29.1 °F /  -1.6 °C 30.13 in /  1020.2 hPa WSW 2.0 mph /  3.2 km/h 4.6 mph /  7.4 km/h 63 % 0.00 in /  0 mm
20:49 40.6 °F /  4.8 °C 29.0 °F /  -1.7 °C 30.13 in /  1020.2 hPa SSW 5.3 mph /  8.5 km/h 6.9 mph /  11.1 km/h 63 % 0.00 in /  0 mm
20:54 40.5 °F /  4.7 °C 28.9 °F /  -1.7 °C 30.13 in /  1020.2 hPa SSW 6.5 mph /  10.5 km/h 9.2 mph /  14.8 km/h 63 % 0.00 in /  0 mm
20:59 40.5 °F /  4.7 °C 28.9 °F /  -1.7 °C 30.13 in /  1020.2 hPa SW 2.1 mph /  3.4 km/h 5.8 mph /  9.3 km/h 63 % 0.00 in /  0 mm
21:04 40.5 °F /  4.7 °C 28.9 °F /  -1.7 °C 30.13 in /  1020.2 hPa WSW 4.1 mph /  6.6 km/h 7.0 mph /  11.3 km/h 63 % 0.00 in /  0 mm
21:14 40.7 °F /  4.8 °C 28.7 °F /  -1.8 °C 30.13 in /  1020.2 hPa SW 3.5 mph /  5.6 km/h 6.9 mph /  11.1 km/h 62 % 0.00 in /  0 mm
21:19 40.9 °F /  4.9 °C 28.9 °F /  -1.7 °C 30.13 in /  1020.2 hPa WSW 2.1 mph /  3.4 km/h 8.0 mph /  12.9 km/h 62 % 0.00 in /  0 mm
21:30 41.3 °F /  5.2 °C 28.9 °F /  -1.7 °C 30.12 in /  1019.9 hPa WSW 4.5 mph /  7.2 km/h 8.1 mph /  13 km/h 61 % 0.00 in /  0 mm
21:35 41.5 °F /  5.3 °C 28.6 °F /  -1.9 °C 30.13 in /  1020.2 hPa SW 4.5 mph /  7.2 km/h 13.0 mph /  20.9 km/h 60 % 0.00 in /  0 mm
21:45 42.0 °F /  5.6 °C 28.7 °F /  -1.8 °C 30.13 in /  1020.2 hPa SW 5.3 mph /  8.5 km/h 10.4 mph /  16.7 km/h 59 % 0.00 in /  0 mm
21:55 42.3 °F /  5.7 °C 29.0 °F /  -1.7 °C 30.13 in /  1020.2 hPa WSW 6.9 mph /  11.1 km/h 11.5 mph /  18.5 km/h 59 % 0.00 in /  0 mm
22:00 42.4 °F /  5.8 °C 29.1 °F /  -1.6 °C 30.13 in /  1020.2 hPa WSW 4.0 mph /  6.4 km/h 11.5 mph /  18.5 km/h 59 % 0.00 in /  0 mm
22:02 42.4 °F /  5.8 °C 29.1 °F /  -1.6 °C 30.13 in /  1020.2 hPa WSW 5.6 mph /  9 km/h 8.1 mph /  13 km/h 59 % 0.00 in /  0 mm
22:12 42.4 °F /  5.8 °C 28.7 °F /  -1.8 °C 30.13 in /  1020.2 hPa SW 3.8 mph /  6.1 km/h 11.5 mph /  18.5 km/h 58 % 0.00 in /  0 mm
22:17 42.5 °F /  5.8 °C 28.8 °F /  -1.8 °C 30.13 in /  1020.2 hPa West 7.1 mph /  11.4 km/h 11.5 mph /  18.5 km/h 58 % 0.00 in /  0 mm
22:22 42.5 °F /  5.8 °C 28.8 °F /  -1.8 °C 30.13 in /  1020.2 hPa SW 5.6 mph /  9 km/h 10.0 mph /  16.1 km/h 58 % 0.00 in /  0 mm
22:28 42.5 °F /  5.8 °C 28.8 °F /  -1.8 °C 30.13 in /  1020.2 hPa South 3.9 mph /  6.3 km/h 6.9 mph /  11.1 km/h 58 % 0.00 in /  0 mm
22:29 42.5 °F /  5.8 °C 28.8 °F /  -1.8 °C 30.14 in /  1020.5 hPa SW 4.0 mph /  6.4 km/h 10.0 mph /  16.1 km/h 58 % 0.00 in /  0 mm
22:33 42.6 °F /  5.9 °C 28.8 °F /  -1.8 °C 30.13 in /  1020.2 hPa SW 4.5 mph /  7.2 km/h 13.8 mph /  22.2 km/h 58 % 0.00 in /  0 mm
22:38 42.7 °F /  5.9 °C 28.9 °F /  -1.7 °C 30.14 in /  1020.5 hPa SW 3.4 mph /  5.5 km/h 10.4 mph /  16.7 km/h 58 % 0.00 in /  0 mm
22:43 42.7 °F /  5.9 °C 28.9 °F /  -1.7 °C 30.14 in /  1020.5 hPa SSW 4.7 mph /  7.6 km/h 6.9 mph /  11.1 km/h 58 % 0.00 in /  0 mm
23:03 43.1 °F /  6.2 °C 28.9 °F /  -1.7 °C 30.14 in /  1020.5 hPa SW 4.6 mph /  7.4 km/h 9.0 mph /  14.5 km/h 57 % 0.00 in /  0 mm
23:08 43.1 °F /  6.2 °C 28.9 °F /  -1.7 °C 30.15 in /  1020.9 hPa SW 4.4 mph /  7.1 km/h 8.1 mph /  13 km/h 57 % 0.00 in /  0 mm
23:13 43.0 °F /  6.1 °C 28.8 °F /  -1.8 °C 30.15 in /  1020.9 hPa WSW 5.4 mph /  8.7 km/h 9.0 mph /  14.5 km/h 57 % 0.00 in /  0 mm
23:18 43.0 °F /  6.1 °C 28.8 °F /  -1.8 °C 30.15 in /  1020.9 hPa SSW 2.6 mph /  4.2 km/h 4.6 mph /  7.4 km/h 57 % 0.00 in /  0 mm
23:23 42.8 °F /  6 °C 28.6 °F /  -1.9 °C 30.15 in /  1020.9 hPa SSW 2.7 mph /  4.3 km/h 5.8 mph /  9.3 km/h 57 % 0.00 in /  0 mm
23:28 42.7 °F /  5.9 °C 28.5 °F /  -1.9 °C 30.15 in /  1020.9 hPa WSW 0.6 mph /  1 km/h 2.3 mph /  3.7 km/h 57 % 0.00 in /  0 mm
23:33 42.6 °F /  5.9 °C 28.8 °F /  -1.8 °C 30.15 in /  1020.9 hPa SSW 0.3 mph /  0.5 km/h 3.5 mph /  5.6 km/h 58 % 0.00 in /  0 mm
23:59 41.8 °F /  5.4 °C 28.5 °F /  -1.9 °C 30.16 in /  1021.2 hPa WSW 3.2 mph /  5.1 km/h 4.6 mph /  7.4 km/h 59 % 0.00 in /  0 mm
Crab Meadow Weather
Compliments of Weather Underground - 2.75 mb

Script developed by  Jim McMurry - jmcmurry@mwt.net Adapted for the template by  Wim van der Kuil - Leuven-Template.eu

Astronomy: Mercury can get as hot as 800 degrees and can be as cold as 300 degrees below zero.